createdAt,value
2023-04-10T00:02:00.637Z,54.15
2023-04-10T00:04:28.356Z,54.47
2023-04-10T00:06:55.473Z,52.95
2023-04-10T00:09:21.959Z,52.75
2023-04-10T00:11:48.642Z,52.94
2023-04-10T00:14:15.363Z,52.79
2023-04-10T00:16:41.870Z,52.10
2023-04-10T00:19:08.636Z,50.33
2023-04-10T00:21:35.054Z,51.05
2023-04-10T00:24:01.478Z,51.05
2023-04-10T00:26:27.921Z,51.43
2023-04-10T00:28:54.299Z,50.53
2023-04-10T00:31:20.852Z,50.41
2023-04-10T00:33:47.292Z,50.76
2023-04-10T00:36:13.795Z,50.76
2023-04-10T00:38:40.344Z,51.04
2023-04-10T00:41:07.158Z,50.94
2023-04-10T00:43:33.574Z,51.23
2023-04-10T00:46:00.337Z,50.95
2023-04-10T00:48:26.802Z,51.60
2023-04-10T00:50:53.231Z,52.51
2023-04-10T00:53:19.913Z,52.31
2023-04-10T00:55:46.900Z,51.79
2023-04-10T00:58:14.465Z,51.26
2023-04-10T01:00:41.461Z,51.23
2023-04-10T01:03:13.266Z,51.11
2023-04-10T01:05:52.282Z,51.69
2023-04-10T01:08:36.449Z,51.12
2023-04-10T01:11:12.903Z,50.84
2023-04-10T01:14:03.974Z,51.10
2023-04-10T01:16:46.519Z,50.64
2023-04-10T01:19:32.538Z,50.50
2023-04-10T01:22:02.052Z,49.61
2023-04-10T01:24:40.411Z,50.71
2023-04-10T01:27:29.116Z,50.87
2023-04-10T01:29:57.575Z,50.65
2023-04-10T01:32:24.614Z,50.40
2023-04-10T01:34:54.417Z,50.86
2023-04-10T01:37:27.419Z,49.70
2023-04-10T01:40:03.988Z,49.46
2023-04-10T01:42:38.985Z,49.67
2023-04-10T01:45:09.055Z,50.06
2023-04-10T01:47:36.380Z,51.47
2023-04-10T01:50:04.200Z,51.96
2023-04-10T01:52:31.682Z,52.58
2023-04-10T01:54:58.565Z,52.67
2023-04-10T01:57:25.242Z,52.91
2023-04-10T01:59:51.646Z,53.98
2023-04-10T02:02:18.209Z,54.06
2023-04-10T02:04:47.002Z,54.79
2023-04-10T02:07:27.333Z,54.72
2023-04-10T02:10:02.410Z,55.16
2023-04-10T02:12:31.400Z,55.86
2023-04-10T02:15:01.846Z,56.71
2023-04-10T02:17:31.516Z,57.24
2023-04-10T02:19:59.721Z,58.40
2023-04-10T02:22:26.495Z,58.49
2023-04-10T02:24:53.929Z,58.51
2023-04-10T02:27:28.033Z,59.10
2023-04-10T02:29:54.510Z,58.97
2023-04-10T02:32:21.161Z,59.06
2023-04-10T02:34:47.598Z,59.54
2023-04-10T02:37:14.077Z,60.27
2023-04-10T02:39:40.750Z,60.71
2023-04-10T02:42:07.215Z,60.00
2023-04-10T02:44:33.766Z,60.42
2023-04-10T02:47:00.330Z,60.94
2023-04-10T02:49:27.264Z,61.27
2023-04-10T02:51:53.708Z,61.39
2023-04-10T02:54:20.400Z,61.55
2023-04-10T02:56:47.248Z,61.89
2023-04-10T02:59:13.689Z,61.35
2023-04-10T03:01:40.964Z,61.83
2023-04-10T03:04:07.898Z,62.40
2023-04-10T03:06:34.432Z,62.63
2023-04-10T03:09:01.128Z,62.55
2023-04-10T03:11:27.522Z,63.31
2023-04-10T03:13:54.153Z,63.06
2023-04-10T03:16:20.942Z,63.59
2023-04-10T03:18:47.391Z,63.66
2023-04-10T03:21:13.816Z,63.88
2023-04-10T03:23:40.362Z,64.68
2023-04-10T03:26:06.983Z,64.36
2023-04-10T03:28:36.479Z,65.48
2023-04-10T03:31:04.328Z,65.29
2023-04-10T03:33:30.980Z,65.03
2023-04-10T03:35:58.070Z,65.39
2023-04-10T03:38:24.652Z,65.48
2023-04-10T03:40:51.155Z,65.01
2023-04-10T03:43:17.612Z,65.77
2023-04-10T03:45:44.056Z,65.61
2023-04-10T03:48:10.534Z,66.25
2023-04-10T03:50:37.084Z,67.02
2023-04-10T03:53:03.449Z,66.69
2023-04-10T03:55:29.923Z,65.92
2023-04-10T03:57:56.300Z,65.78
2023-04-10T04:00:24.555Z,65.84
2023-04-10T04:02:51.896Z,66.51
2023-04-10T04:05:18.677Z,65.35
2023-04-10T04:07:45.374Z,65.59
2023-04-10T04:10:12.241Z,66.00
2023-04-10T04:12:38.607Z,66.13
2023-04-10T04:15:05.333Z,65.58
2023-04-10T04:17:31.854Z,65.72
2023-04-10T04:19:58.292Z,66.28
2023-04-10T04:22:24.812Z,65.71
2023-04-10T04:24:52.503Z,65.81
2023-04-10T04:27:21.779Z,66.19
2023-04-10T04:29:48.324Z,65.65
2023-04-10T04:32:15.142Z,66.32
2023-04-10T04:34:41.709Z,66.25
2023-04-10T04:37:08.116Z,66.50
2023-04-10T04:39:34.470Z,66.10
2023-04-10T04:42:01.397Z,66.29
2023-04-10T04:44:27.756Z,66.06
2023-04-10T04:46:54.097Z,65.44
2023-04-10T04:49:20.449Z,65.98
2023-04-10T04:51:46.878Z,65.88
2023-04-10T04:54:13.236Z,65.61
2023-04-10T04:56:39.692Z,65.10
2023-04-10T04:59:06.072Z,64.96
2023-04-10T05:01:32.850Z,65.46
2023-04-10T05:03:59.369Z,65.61
2023-04-10T05:06:26.429Z,64.78
2023-04-10T05:08:53.194Z,64.60
2023-04-10T05:11:19.917Z,64.67
2023-04-10T05:13:46.386Z,64.34
2023-04-10T05:16:12.876Z,63.25
2023-04-10T05:18:39.406Z,63.04
2023-04-10T05:21:06.093Z,62.28
2023-04-10T05:23:32.518Z,62.47
2023-04-10T05:25:58.965Z,61.74
2023-04-10T05:28:25.426Z,62.08
2023-04-10T05:30:52.082Z,61.64
2023-04-10T05:33:18.474Z,61.82
2023-04-10T05:35:46.333Z,61.30
2023-04-10T05:38:12.893Z,60.95
2023-04-10T05:40:39.338Z,60.49
2023-04-10T05:43:05.957Z,60.17
2023-04-10T05:45:32.430Z,60.91
2023-04-10T05:47:58.886Z,60.70
2023-04-10T05:50:25.333Z,60.14
2023-04-10T05:52:51.776Z,60.08
2023-04-10T05:55:18.336Z,59.80
2023-04-10T05:57:44.776Z,59.27
2023-04-10T06:00:11.949Z,58.13
2023-04-10T06:02:39.146Z,57.07
2023-04-10T06:05:06.460Z,57.48
2023-04-10T06:07:33.243Z,57.12
2023-04-10T06:09:59.647Z,56.87
2023-04-10T06:12:26.010Z,56.71
2023-04-10T06:14:52.387Z,56.21
2023-04-10T06:17:21.150Z,55.87
2023-04-10T06:19:47.882Z,55.83
2023-04-10T06:22:14.229Z,55.58
2023-04-10T06:24:40.634Z,55.93
2023-04-10T06:27:07.172Z,55.51
2023-04-10T06:29:33.537Z,55.55
2023-04-10T06:32:00.509Z,54.92
2023-04-10T06:34:27.388Z,54.43
2023-04-10T06:36:53.990Z,53.64
2023-04-10T06:39:20.359Z,53.79
2023-04-10T06:41:46.826Z,53.17
2023-04-10T06:44:13.288Z,52.61
2023-04-10T06:46:39.666Z,51.35
2023-04-10T06:49:06.236Z,50.92
2023-04-10T06:51:32.761Z,50.89
2023-04-10T06:53:59.179Z,50.04
2023-04-10T06:56:25.926Z,49.99
2023-04-10T06:58:52.464Z,48.59
2023-04-10T07:01:19.142Z,47.98
2023-04-10T07:03:45.906Z,46.75
2023-04-10T07:06:12.707Z,45.72
2023-04-10T07:08:39.175Z,44.86
2023-04-10T07:11:05.940Z,43.07
2023-04-10T07:13:32.351Z,41.85
2023-04-10T07:15:58.764Z,39.35
2023-04-10T07:18:25.215Z,37.69
2023-04-10T07:20:51.850Z,35.87
2023-04-10T07:23:19.598Z,34.55
2023-04-10T07:25:46.512Z,34.07
2023-04-10T07:28:12.888Z,34.04
2023-04-10T07:30:39.264Z,32.70
2023-04-10T07:33:06.181Z,31.95
2023-04-10T07:35:32.667Z,29.96
2023-04-10T07:37:59.070Z,29.16
2023-04-10T07:40:25.581Z,29.71
2023-04-10T07:42:53.905Z,28.68
2023-04-10T07:45:20.529Z,28.97
2023-04-10T07:47:46.962Z,27.63
2023-04-10T07:50:13.394Z,26.96
2023-04-10T07:52:39.780Z,26.47
2023-04-10T07:55:06.594Z,27.29
2023-04-10T07:57:33.281Z,26.35
2023-04-10T07:59:59.803Z,26.36
2023-04-10T08:02:26.529Z,25.45
2023-04-10T08:04:53.209Z,25.51
2023-04-10T08:07:21.256Z,25.12
2023-04-10T08:09:47.686Z,24.97
2023-04-10T08:12:14.132Z,25.13
2023-04-10T08:14:40.864Z,24.54
2023-04-10T08:17:07.384Z,24.12
2023-04-10T08:19:33.741Z,24.37
2023-04-10T08:22:00.209Z,23.18
2023-04-10T08:24:26.614Z,22.94
2023-04-10T08:26:53.252Z,23.09
2023-04-10T08:29:19.687Z,22.86
2023-04-10T08:31:46.123Z,22.46
2023-04-10T08:34:12.529Z,22.90
2023-04-10T08:36:39.309Z,22.74
2023-04-10T08:39:05.680Z,22.91
2023-04-10T08:41:32.203Z,23.25
2023-04-10T08:43:58.700Z,23.14
2023-04-10T08:46:28.143Z,21.85
2023-04-10T08:49:02.550Z,22.05
2023-04-10T08:51:43.914Z,21.65
2023-04-10T08:54:19.952Z,21.30
2023-04-10T08:56:51.256Z,21.04
2023-04-10T08:59:18.284Z,21.85
2023-04-10T09:01:46.793Z,20.35
2023-04-10T09:04:14.132Z,20.18
2023-04-10T09:06:40.633Z,20.77
2023-04-10T09:09:07.120Z,20.77
2023-04-10T09:11:51.688Z,20.46
2023-04-10T09:14:29.681Z,20.19
2023-04-10T09:17:13.811Z,20.34
2023-04-10T09:19:40.965Z,21.85
2023-04-10T09:22:07.472Z,20.97
2023-04-10T09:24:42.872Z,22.45
2023-04-10T09:27:10.027Z,23.50
2023-04-10T09:29:45.008Z,23.10
2023-04-10T09:32:12.519Z,21.90
2023-04-10T09:34:53.806Z,21.55
2023-04-10T09:37:22.588Z,21.21
2023-04-10T09:39:49.038Z,21.26
2023-04-10T09:42:15.556Z,20.85
2023-04-10T09:44:42.800Z,21.31
2023-04-10T09:47:21.700Z,20.87
2023-04-10T09:49:55.918Z,21.25
2023-04-10T09:52:26.212Z,20.25
2023-04-10T09:54:59.458Z,20.20
2023-04-10T09:57:27.617Z,20.64
2023-04-10T09:59:56.308Z,22.01
2023-04-10T10:02:25.704Z,21.42
2023-04-10T10:04:52.953Z,21.07
2023-04-10T10:07:21.223Z,19.22
2023-04-10T10:09:49.589Z,20.36
2023-04-10T10:12:19.157Z,20.27
2023-04-10T10:14:57.668Z,19.77
2023-04-10T10:17:28.626Z,20.38
2023-04-10T10:20:04.687Z,18.80
2023-04-10T10:22:32.352Z,19.05
2023-04-10T10:25:00.618Z,19.26
2023-04-10T10:27:30.742Z,18.77
2023-04-10T10:30:02.950Z,18.43
2023-04-10T10:32:32.244Z,17.97
2023-04-10T10:35:01.294Z,18.83
2023-04-10T10:37:29.677Z,17.76
2023-04-10T10:40:14.836Z,17.39
2023-04-10T10:43:13.545Z,18.06
2023-04-10T10:45:52.471Z,17.47
2023-04-10T10:48:18.978Z,17.37
2023-04-10T10:50:53.810Z,17.59
2023-04-10T10:53:41.169Z,17.71
2023-04-10T10:56:19.839Z,17.51
2023-04-10T10:58:48.099Z,18.03
2023-04-10T11:01:15.691Z,18.32
2023-04-10T11:03:44.433Z,18.21
2023-04-10T11:06:13.048Z,18.72
2023-04-10T11:08:45.885Z,19.75
2023-04-10T11:11:15.751Z,18.55
2023-04-10T11:13:57.380Z,17.81
2023-04-10T11:16:43.827Z,18.61
2023-04-10T11:19:16.408Z,18.33
2023-04-10T11:22:07.983Z,17.80
2023-04-10T11:25:00.615Z,17.64
2023-04-10T11:27:40.481Z,17.59
2023-04-10T11:30:33.045Z,17.34
2023-04-10T11:33:02.044Z,18.64
2023-04-10T11:35:29.038Z,17.78
2023-04-10T11:38:12.080Z,17.33
2023-04-10T11:40:55.046Z,17.74
2023-04-10T11:43:22.062Z,16.78
2023-04-10T11:45:49.225Z,17.30
2023-04-10T11:48:17.370Z,17.34
2023-04-10T11:50:43.875Z,16.95
2023-04-10T11:53:20.324Z,17.20
2023-04-10T11:55:47.197Z,17.76
2023-04-10T11:58:23.538Z,17.17
2023-04-10T12:01:05.486Z,16.75
2023-04-10T12:03:37.216Z,17.26
2023-04-10T12:06:07.190Z,17.25
2023-04-10T12:08:34.877Z,17.59
2023-04-10T12:11:01.742Z,16.09
2023-04-10T12:13:29.840Z,17.28
2023-04-10T12:16:06.610Z,15.76
2023-04-10T12:18:33.824Z,15.79
2023-04-10T12:21:01.182Z,15.58
2023-04-10T12:23:29.452Z,16.37
2023-04-10T12:26:10.227Z,16.48
2023-04-10T12:28:37.928Z,16.69
2023-04-10T12:31:05.043Z,16.69
2023-04-10T12:33:31.662Z,16.66
2023-04-10T12:35:59.186Z,17.04
2023-04-10T12:38:43.126Z,17.23
2023-04-10T12:41:11.318Z,16.16
2023-04-10T12:43:39.793Z,16.96
2023-04-10T12:46:07.744Z,16.66
2023-04-10T12:48:34.375Z,16.75
2023-04-10T12:51:01.317Z,17.57
2023-04-10T12:53:28.137Z,17.27
2023-04-10T12:56:03.579Z,17.37
2023-04-10T12:58:33.492Z,17.25
2023-04-10T13:01:07.896Z,17.96
2023-04-10T13:03:36.303Z,18.01
2023-04-10T13:06:06.285Z,17.81
2023-04-10T13:08:32.987Z,17.94
2023-04-10T13:11:06.887Z,17.96
2023-04-10T13:13:33.336Z,16.83
2023-04-10T13:16:01.399Z,15.74
2023-04-10T13:18:27.977Z,16.00
2023-04-10T13:20:54.514Z,15.03
2023-04-10T13:23:20.989Z,15.33
2023-04-10T13:25:47.545Z,15.15
2023-04-10T13:28:15.738Z,14.54
2023-04-10T13:30:42.456Z,15.01
2023-04-10T13:33:09.725Z,15.63
2023-04-10T13:35:36.478Z,15.14
2023-04-10T13:38:03.862Z,15.65
2023-04-10T13:40:30.689Z,16.13
2023-04-10T13:42:57.139Z,15.75
2023-04-10T13:45:23.656Z,15.54
2023-04-10T13:47:50.278Z,16.65
2023-04-10T13:50:16.999Z,16.73
2023-04-10T13:52:43.358Z,15.83
2023-04-10T13:55:10.394Z,16.09
2023-04-10T13:57:37.014Z,16.31
2023-04-10T14:00:04.638Z,16.50
2023-04-10T14:02:31.500Z,16.87
2023-04-10T14:04:58.040Z,16.46
2023-04-10T14:07:24.453Z,17.07
2023-04-10T14:09:51.013Z,17.26
2023-04-10T14:12:19.119Z,17.05
2023-04-10T14:14:46.085Z,17.69
2023-04-10T14:17:12.591Z,17.62
2023-04-10T14:19:39.776Z,16.97
2023-04-10T14:22:06.464Z,16.98
2023-04-10T14:24:33.193Z,17.75
2023-04-10T14:27:01.850Z,17.42
2023-04-10T14:29:36.340Z,17.38
2023-04-10T14:32:06.074Z,17.26
2023-04-10T14:34:32.450Z,18.19
2023-04-10T14:36:59.680Z,17.03
2023-04-10T14:39:26.260Z,17.15
2023-04-10T14:41:52.918Z,17.28
2023-04-10T14:44:19.587Z,17.01
2023-04-10T14:46:46.265Z,17.31
2023-04-10T14:49:13.771Z,17.98
2023-04-10T14:51:43.287Z,18.54
2023-04-10T14:54:09.768Z,18.96
2023-04-10T14:56:36.400Z,18.81
2023-04-10T14:59:02.882Z,19.29
2023-04-10T15:01:29.296Z,19.73
2023-04-10T15:03:56.125Z,19.07
2023-04-10T15:06:22.768Z,19.79
2023-04-10T15:08:49.337Z,19.33
2023-04-10T15:11:15.845Z,18.92
2023-04-10T15:13:42.263Z,19.34
2023-04-10T15:16:08.973Z,18.54
2023-04-10T15:18:35.544Z,18.64
2023-04-10T15:21:01.935Z,18.53
2023-04-10T15:23:28.368Z,18.36
2023-04-10T15:25:55.128Z,18.59
2023-04-10T15:28:21.667Z,18.33
2023-04-10T15:30:49.969Z,18.37
2023-04-10T15:33:17.292Z,18.05
2023-04-10T15:35:48.005Z,17.68
2023-04-10T15:38:14.523Z,17.23
2023-04-10T15:40:40.972Z,16.94
2023-04-10T15:43:07.482Z,17.59
2023-04-10T15:45:36.286Z,17.82
2023-04-10T15:48:04.574Z,17.37
2023-04-10T15:50:31.255Z,17.64
2023-04-10T15:52:57.708Z,17.88
2023-04-10T15:55:24.227Z,17.68
2023-04-10T15:57:50.814Z,17.74
2023-04-10T16:00:17.732Z,17.58
2023-04-10T16:02:44.581Z,17.41
2023-04-10T16:05:11.541Z,17.53
2023-04-10T16:07:39.570Z,17.32
2023-04-10T16:10:06.666Z,17.93
2023-04-10T16:12:33.042Z,18.17
2023-04-10T16:14:59.735Z,17.73
2023-04-10T16:17:26.251Z,17.81
2023-04-10T16:19:52.802Z,18.46
2023-04-10T16:22:19.344Z,18.23
2023-04-10T16:24:45.793Z,18.73
2023-04-10T16:27:12.254Z,18.45
2023-04-10T16:29:38.841Z,18.89
2023-04-10T16:32:05.321Z,18.66
2023-04-10T16:34:31.933Z,18.71
2023-04-10T16:36:58.388Z,18.74
2023-04-10T16:39:24.891Z,19.30
2023-04-10T16:41:51.310Z,19.32
2023-04-10T16:44:17.936Z,19.50
2023-04-10T16:46:44.379Z,19.22
2023-04-10T16:49:11.204Z,19.64
2023-04-10T16:51:37.636Z,19.62
2023-04-10T16:54:04.149Z,20.61
2023-04-10T16:56:33.554Z,20.49
2023-04-10T16:59:00.004Z,20.87
2023-04-10T17:01:27.071Z,20.72
2023-04-10T17:03:54.554Z,20.79
2023-04-10T17:06:21.173Z,20.93
2023-04-10T17:08:48.091Z,21.61
2023-04-10T17:11:14.908Z,21.09
2023-04-10T17:13:42.214Z,21.38
2023-04-10T17:16:09.376Z,21.32
2023-04-10T17:18:35.939Z,21.85
2023-04-10T17:21:02.489Z,21.84
2023-04-10T17:23:29.421Z,22.01
2023-04-10T17:25:55.812Z,22.11
2023-04-10T17:28:22.176Z,22.09
2023-04-10T17:30:48.600Z,22.30
2023-04-10T17:33:15.269Z,22.33
2023-04-10T17:35:42.191Z,22.47
2023-04-10T17:38:08.697Z,23.42
2023-04-10T17:40:35.179Z,22.91
2023-04-10T17:43:01.683Z,22.93
2023-04-10T17:45:28.053Z,23.19
2023-04-10T17:47:54.574Z,23.34
2023-04-10T17:50:21.352Z,23.74
2023-04-10T17:52:47.791Z,23.65
2023-04-10T17:55:18.372Z,24.08
2023-04-10T17:57:47.227Z,23.95
2023-04-10T18:00:20.046Z,24.20
2023-04-10T18:02:48.227Z,24.58
2023-04-10T18:05:15.450Z,24.38
2023-04-10T18:07:42.013Z,24.53
2023-04-10T18:10:11.153Z,25.11
2023-04-10T18:12:38.044Z,25.16
2023-04-10T18:15:05.251Z,25.54
2023-04-10T18:17:31.778Z,26.21
2023-04-10T18:19:58.192Z,25.66
2023-04-10T18:22:24.600Z,25.78
2023-04-10T18:24:51.077Z,26.15
2023-04-10T18:27:17.486Z,26.16
2023-04-10T18:29:45.582Z,26.50
2023-04-10T18:32:12.434Z,26.49
2023-04-10T18:34:39.201Z,26.62
2023-04-10T18:37:06.853Z,26.80
2023-04-10T18:39:38.180Z,26.94
2023-04-10T18:42:08.127Z,27.08
2023-04-10T18:44:34.943Z,27.58
2023-04-10T18:47:04.685Z,27.92
2023-04-10T18:49:34.092Z,28.28
2023-04-10T18:52:00.661Z,28.55
2023-04-10T18:54:27.492Z,28.67
2023-04-10T18:56:54.147Z,28.63
2023-04-10T18:59:20.690Z,28.70
2023-04-10T19:01:47.445Z,28.87
2023-04-10T19:04:14.280Z,28.92
2023-04-10T19:06:42.725Z,28.96
2023-04-10T19:09:09.165Z,29.23
2023-04-10T19:11:35.572Z,29.50
2023-04-10T19:14:02.045Z,29.61
2023-04-10T19:16:28.639Z,29.94
2023-04-10T19:18:55.498Z,29.75
2023-04-10T19:21:22.441Z,30.31
2023-04-10T19:23:49.277Z,30.74
2023-04-10T19:26:16.003Z,30.90
2023-04-10T19:28:42.439Z,31.38
2023-04-10T19:31:09.111Z,31.51
2023-04-10T19:33:35.575Z,31.61
2023-04-10T19:36:02.073Z,31.99
2023-04-10T19:38:29.670Z,32.41
2023-04-10T19:40:56.848Z,33.50
2023-04-10T19:43:23.391Z,34.00
2023-04-10T19:45:50.313Z,34.80
2023-04-10T19:48:16.795Z,35.38
2023-04-10T19:50:43.210Z,35.59
2023-04-10T19:53:12.803Z,36.22
2023-04-10T19:55:40.779Z,36.28
2023-04-10T19:58:13.286Z,36.81
2023-04-10T20:00:47.469Z,36.63
2023-04-10T20:03:15.981Z,36.57
2023-04-10T20:05:42.714Z,36.72
2023-04-10T20:08:09.194Z,36.87
2023-04-10T20:10:35.603Z,37.07
2023-04-10T20:13:02.245Z,37.72
2023-04-10T20:15:28.681Z,37.99
2023-04-10T20:17:55.114Z,38.06
2023-04-10T20:20:21.857Z,38.08
2023-04-10T20:22:48.312Z,38.02
2023-04-10T20:25:14.864Z,37.67
2023-04-10T20:27:41.246Z,38.31
2023-04-10T20:30:08.180Z,38.19
2023-04-10T20:32:34.748Z,38.35
2023-04-10T20:35:01.318Z,38.81
2023-04-10T20:37:27.894Z,38.91
2023-04-10T20:39:54.342Z,39.00
2023-04-10T20:42:20.770Z,39.13
2023-04-10T20:44:47.205Z,39.03
2023-04-10T20:47:13.770Z,39.11
2023-04-10T20:49:40.381Z,39.41
2023-04-10T20:52:07.258Z,39.23
2023-04-10T20:54:33.752Z,39.25
2023-04-10T20:57:01.882Z,39.47
2023-04-10T20:59:29.336Z,39.52
2023-04-10T21:01:56.164Z,39.43
2023-04-10T21:04:22.684Z,39.47
2023-04-10T21:06:49.102Z,38.92
2023-04-10T21:09:15.795Z,38.83
2023-04-10T21:11:42.171Z,38.68
2023-04-10T21:14:08.604Z,38.10
2023-04-10T21:16:37.441Z,37.90
2023-04-10T21:19:03.948Z,37.33
2023-04-10T21:21:31.130Z,37.49
2023-04-10T21:23:57.491Z,37.20
2023-04-10T21:26:23.914Z,37.19
2023-04-10T21:28:50.303Z,37.08
2023-04-10T21:31:16.729Z,36.98
2023-04-10T21:33:44.018Z,37.06
2023-04-10T21:36:10.942Z,36.86
2023-04-10T21:38:37.561Z,36.80
2023-04-10T21:41:05.803Z,36.85
2023-04-10T21:43:32.223Z,36.58
2023-04-10T21:46:00.354Z,36.60
2023-04-10T21:48:28.122Z,36.62
2023-04-10T21:50:54.478Z,36.61
2023-04-10T21:53:20.925Z,36.45
2023-04-10T21:55:47.351Z,36.53
2023-04-10T21:58:13.817Z,36.48
2023-04-10T22:00:41.467Z,36.43
2023-04-10T22:03:09.762Z,36.38
2023-04-10T22:05:36.421Z,36.18
2023-04-10T22:08:03.101Z,35.39
2023-04-10T22:10:29.648Z,36.21
2023-04-10T22:12:56.314Z,36.04
2023-04-10T22:15:22.717Z,36.17
2023-04-10T22:17:49.426Z,35.69
2023-04-10T22:20:16.227Z,35.88
2023-04-10T22:22:42.645Z,35.76
2023-04-10T22:25:09.295Z,35.78
2023-04-10T22:27:35.653Z,35.92
2023-04-10T22:30:03.903Z,36.02
2023-04-10T22:32:31.543Z,36.08
2023-04-10T22:35:01.134Z,36.65
2023-04-10T22:37:27.855Z,36.61
2023-04-10T22:39:56.098Z,36.96
2023-04-10T22:42:22.744Z,37.39
2023-04-10T22:44:49.253Z,37.45
2023-04-10T22:47:15.717Z,37.88
2023-04-10T22:49:42.377Z,38.32
2023-04-10T22:52:08.835Z,38.51
2023-04-10T22:54:35.376Z,39.24
2023-04-10T22:57:01.929Z,39.13
2023-04-10T22:59:28.341Z,40.01
2023-04-10T23:01:54.827Z,39.68
2023-04-10T23:04:21.434Z,40.03
2023-04-10T23:06:48.193Z,40.70
2023-04-10T23:09:14.677Z,40.78
2023-04-10T23:11:41.103Z,40.96
2023-04-10T23:14:07.628Z,41.07
2023-04-10T23:16:34.300Z,41.11
2023-04-10T23:19:00.712Z,40.84
2023-04-10T23:21:27.639Z,40.74
2023-04-10T23:23:54.089Z,40.63
2023-04-10T23:26:20.872Z,41.19
2023-04-10T23:28:47.702Z,41.18
2023-04-10T23:31:14.386Z,41.15
2023-04-10T23:33:40.757Z,41.40
2023-04-10T23:36:07.591Z,41.34
2023-04-10T23:38:34.018Z,40.93
2023-04-10T23:41:00.376Z,40.79
2023-04-10T23:43:26.762Z,41.00
2023-04-10T23:45:53.149Z,40.97
2023-04-10T23:48:19.658Z,41.17
2023-04-10T23:50:46.033Z,41.01
2023-04-10T23:53:14.465Z,40.89
2023-04-10T23:55:41.934Z,41.13
2023-04-10T23:58:08.541Z,41.39
